sensor_id;sensor_type;location;lat;lon;timestamp;P1;durP1;ratioP1;P2;durP2;ratioP2
10315;SDS011;5203;48.976;8.306;2024-03-02T00:00:01;15.60;;;8.73;;
10315;SDS011;5203;48.976;8.306;2024-03-02T00:02:39;15.75;;;9.00;;
10315;SDS011;5203;48.976;8.306;2024-03-02T00:05:12;14.85;;;9.57;;
10315;SDS011;5203;48.976;8.306;2024-03-02T00:07:43;18.55;;;10.20;;
10315;SDS011;5203;48.976;8.306;2024-03-02T00:10:10;13.07;;;8.90;;
10315;SDS011;5203;48.976;8.306;2024-03-02T00:12:37;13.00;;;8.50;;
10315;SDS011;5203;48.976;8.306;2024-03-02T00:15:47;18.15;;;13.52;;
10315;SDS011;5203;48.976;8.306;2024-03-02T00:17:53;16.77;;;9.70;;
10315;SDS011;5203;48.976;8.306;2024-03-02T00:20:21;15.88;;;9.38;;
10315;SDS011;5203;48.976;8.306;2024-03-02T00:22:48;15.93;;;10.13;;
10315;SDS011;5203;48.976;8.306;2024-03-02T00:25:15;14.45;;;9.23;;
10315;SDS011;5203;48.976;8.306;2024-03-02T00:27:42;15.43;;;8.75;;
10315;SDS011;5203;48.976;8.306;2024-03-02T00:33:18;14.70;;;8.25;;
10315;SDS011;5203;48.976;8.306;2024-03-02T00:35:46;22.08;;;9.90;;
10315;SDS011;5203;48.976;8.306;2024-03-02T00:38:12;17.98;;;8.93;;
10315;SDS011;5203;48.976;8.306;2024-03-02T00:40:40;16.08;;;8.95;;
10315;SDS011;5203;48.976;8.306;2024-03-02T00:46:09;13.32;;;8.38;;
10315;SDS011;5203;48.976;8.306;2024-03-02T00:48:47;11.73;;;8.27;;
10315;SDS011;5203;48.976;8.306;2024-03-02T00:51:16;14.70;;;9.27;;
10315;SDS011;5203;48.976;8.306;2024-03-02T00:53:42;18.38;;;9.57;;
10315;SDS011;5203;48.976;8.306;2024-03-02T00:56:11;18.95;;;10.23;;
10315;SDS011;5203;48.976;8.306;2024-03-02T00:58:37;15.20;;;9.23;;
10315;SDS011;5203;48.976;8.306;2024-03-02T01:01:03;13.23;;;9.38;;
10315;SDS011;5203;48.976;8.306;2024-03-02T01:03:31;17.58;;;8.50;;
10315;SDS011;5203;48.976;8.306;2024-03-02T01:05:57;15.43;;;11.50;;
10315;SDS011;5203;48.976;8.306;2024-03-02T01:08:23;14.25;;;9.05;;
10315;SDS011;5203;48.976;8.306;2024-03-02T01:10:50;19.63;;;12.23;;
10315;SDS011;5203;48.976;8.306;2024-03-02T01:13:16;20.58;;;11.50;;
10315;SDS011;5203;48.976;8.306;2024-03-02T01:15:42;19.23;;;13.55;;
10315;SDS011;5203;48.976;8.306;2024-03-02T01:18:07;20.50;;;12.23;;
10315;SDS011;5203;48.976;8.306;2024-03-02T01:20:33;22.10;;;13.45;;
10315;SDS011;5203;48.976;8.306;2024-03-02T01:22:59;19.05;;;13.48;;
10315;SDS011;5203;48.976;8.306;2024-03-02T01:25:25;22.58;;;12.98;;
10315;SDS011;5203;48.976;8.306;2024-03-02T01:27:51;18.92;;;11.90;;
10315;SDS011;5203;48.976;8.306;2024-03-02T01:30:16;19.45;;;12.23;;
10315;SDS011;5203;48.976;8.306;2024-03-02T01:32:46;22.70;;;13.18;;
10315;SDS011;5203;48.976;8.306;2024-03-02T01:35:12;19.17;;;12.20;;
10315;SDS011;5203;48.976;8.306;2024-03-02T01:37:37;19.35;;;11.85;;
10315;SDS011;5203;48.976;8.306;2024-03-02T01:40:03;17.30;;;11.45;;
10315;SDS011;5203;48.976;8.306;2024-03-02T01:42:35;22.80;;;12.45;;
10315;SDS011;5203;48.976;8.306;2024-03-02T01:45:01;22.95;;;14.07;;
10315;SDS011;5203;48.976;8.306;2024-03-02T01:47:28;23.88;;;13.18;;
10315;SDS011;5203;48.976;8.306;2024-03-02T01:49:54;21.48;;;13.65;;
10315;SDS011;5203;48.976;8.306;2024-03-02T01:52:20;19.75;;;13.23;;
10315;SDS011;5203;48.976;8.306;2024-03-02T01:54:46;23.90;;;13.25;;
10315;SDS011;5203;48.976;8.306;2024-03-02T01:57:12;18.60;;;11.68;;
10315;SDS011;5203;48.976;8.306;2024-03-02T01:59:37;21.48;;;12.60;;
10315;SDS011;5203;48.976;8.306;2024-03-02T02:02:04;22.33;;;13.77;;
10315;SDS011;5203;48.976;8.306;2024-03-02T02:04:30;20.92;;;12.27;;
10315;SDS011;5203;48.976;8.306;2024-03-02T02:06:56;17.63;;;10.93;;
10315;SDS011;5203;48.976;8.306;2024-03-02T02:09:22;19.70;;;12.20;;
10315;SDS011;5203;48.976;8.306;2024-03-02T02:11:47;19.35;;;11.80;;
10315;SDS011;5203;48.976;8.306;2024-03-02T02:14:15;18.90;;;10.90;;
10315;SDS011;5203;48.976;8.306;2024-03-02T02:16:41;17.40;;;11.25;;
10315;SDS011;5203;48.976;8.306;2024-03-02T02:19:07;17.13;;;10.95;;
10315;SDS011;5203;48.976;8.306;2024-03-02T02:21:33;16.40;;;10.63;;
10315;SDS011;5203;48.976;8.306;2024-03-02T02:23:59;14.30;;;9.10;;
10315;SDS011;5203;48.976;8.306;2024-03-02T02:26:26;14.93;;;9.90;;
10315;SDS011;5203;48.976;8.306;2024-03-02T02:28:52;16.40;;;10.10;;
10315;SDS011;5203;48.976;8.306;2024-03-02T02:31:17;14.85;;;10.00;;
10315;SDS011;5203;48.976;8.306;2024-03-02T02:33:43;16.33;;;10.38;;
10315;SDS011;5203;48.976;8.306;2024-03-02T02:36:09;16.25;;;10.52;;
10315;SDS011;5203;48.976;8.306;2024-03-02T02:38:38;20.60;;;10.98;;
10315;SDS011;5203;48.976;8.306;2024-03-02T02:41:08;14.07;;;9.20;;
10315;SDS011;5203;48.976;8.306;2024-03-02T02:43:34;15.98;;;10.48;;
10315;SDS011;5203;48.976;8.306;2024-03-02T02:45:59;15.70;;;10.38;;
10315;SDS011;5203;48.976;8.306;2024-03-02T02:48:25;17.80;;;10.52;;
10315;SDS011;5203;48.976;8.306;2024-03-02T02:50:51;17.35;;;10.05;;
10315;SDS011;5203;48.976;8.306;2024-03-02T02:53:19;16.42;;;9.57;;
10315;SDS011;5203;48.976;8.306;2024-03-02T02:55:45;18.67;;;10.20;;
10315;SDS011;5203;48.976;8.306;2024-03-02T02:58:11;15.45;;;9.55;;
10315;SDS011;5203;48.976;8.306;2024-03-02T03:00:37;17.38;;;9.82;;
10315;SDS011;5203;48.976;8.306;2024-03-02T03:03:05;15.02;;;10.32;;
10315;SDS011;5203;48.976;8.306;2024-03-02T03:05:31;18.23;;;10.55;;
10315;SDS011;5203;48.976;8.306;2024-03-02T03:07:57;18.73;;;10.93;;
10315;SDS011;5203;48.976;8.306;2024-03-02T03:10:23;15.20;;;8.55;;
10315;SDS011;5203;48.976;8.306;2024-03-02T03:12:50;15.32;;;9.80;;
10315;SDS011;5203;48.976;8.306;2024-03-02T03:15:16;16.27;;;9.32;;
10315;SDS011;5203;48.976;8.306;2024-03-02T03:17:42;14.05;;;8.27;;
10315;SDS011;5203;48.976;8.306;2024-03-02T03:20:08;13.50;;;8.30;;
10315;SDS011;5203;48.976;8.306;2024-03-02T03:22:35;15.30;;;8.05;;
10315;SDS011;5203;48.976;8.306;2024-03-02T03:25:01;13.60;;;8.32;;
10315;SDS011;5203;48.976;8.306;2024-03-02T03:27:28;13.07;;;8.00;;
10315;SDS011;5203;48.976;8.306;2024-03-02T03:29:54;12.07;;;8.95;;
10315;SDS011;5203;48.976;8.306;2024-03-02T03:32:20;14.10;;;8.90;;
10315;SDS011;5203;48.976;8.306;2024-03-02T03:34:46;13.82;;;8.30;;
10315;SDS011;5203;48.976;8.306;2024-03-02T03:37:13;16.60;;;9.60;;
10315;SDS011;5203;48.976;8.306;2024-03-02T03:39:39;15.40;;;8.75;;
10315;SDS011;5203;48.976;8.306;2024-03-02T03:42:05;15.45;;;9.50;;
10315;SDS011;5203;48.976;8.306;2024-03-02T03:44:31;13.73;;;8.13;;
10315;SDS011;5203;48.976;8.306;2024-03-02T03:46:57;14.15;;;8.23;;
10315;SDS011;5203;48.976;8.306;2024-03-02T03:49:23;13.65;;;8.48;;
10315;SDS011;5203;48.976;8.306;2024-03-02T03:51:50;12.18;;;8.02;;
10315;SDS011;5203;48.976;8.306;2024-03-02T03:54:16;13.57;;;7.90;;
10315;SDS011;5203;48.976;8.306;2024-03-02T03:56:42;14.32;;;8.50;;
10315;SDS011;5203;48.976;8.306;2024-03-02T03:59:08;14.32;;;8.48;;
10315;SDS011;5203;48.976;8.306;2024-03-02T04:01:34;16.73;;;12.13;;
10315;SDS011;5203;48.976;8.306;2024-03-02T04:04:00;14.38;;;9.70;;
10315;SDS011;5203;48.976;8.306;2024-03-02T04:06:28;12.93;;;8.48;;
10315;SDS011;5203;48.976;8.306;2024-03-02T04:08:54;14.93;;;9.20;;
10315;SDS011;5203;48.976;8.306;2024-03-02T04:11:20;9.75;;;7.72;;
10315;SDS011;5203;48.976;8.306;2024-03-02T04:13:46;14.48;;;8.95;;
10315;SDS011;5203;48.976;8.306;2024-03-02T04:16:11;14.50;;;8.23;;
10315;SDS011;5203;48.976;8.306;2024-03-02T04:18:37;13.38;;;8.15;;
10315;SDS011;5203;48.976;8.306;2024-03-02T04:21:04;14.07;;;8.32;;
10315;SDS011;5203;48.976;8.306;2024-03-02T04:23:30;14.07;;;7.25;;
10315;SDS011;5203;48.976;8.306;2024-03-02T04:25:56;13.13;;;8.60;;
10315;SDS011;5203;48.976;8.306;2024-03-02T04:28:22;12.15;;;8.20;;
10315;SDS011;5203;48.976;8.306;2024-03-02T04:30:48;15.50;;;8.25;;
10315;SDS011;5203;48.976;8.306;2024-03-02T04:33:13;12.05;;;7.47;;
10315;SDS011;5203;48.976;8.306;2024-03-02T04:35:39;11.75;;;8.50;;
10315;SDS011;5203;48.976;8.306;2024-03-02T04:38:05;15.43;;;8.00;;
10315;SDS011;5203;48.976;8.306;2024-03-02T04:40:31;13.52;;;7.15;;
10315;SDS011;5203;48.976;8.306;2024-03-02T04:42:57;14.18;;;7.15;;
10315;SDS011;5203;48.976;8.306;2024-03-02T04:45:24;11.07;;;7.95;;
10315;SDS011;5203;48.976;8.306;2024-03-02T04:47:50;13.75;;;11.25;;
10315;SDS011;5203;48.976;8.306;2024-03-02T04:50:16;13.23;;;7.63;;
10315;SDS011;5203;48.976;8.306;2024-03-02T04:52:41;11.75;;;7.18;;
10315;SDS011;5203;48.976;8.306;2024-03-02T04:55:07;11.70;;;7.75;;
10315;SDS011;5203;48.976;8.306;2024-03-02T05:00:11;10.52;;;7.25;;
10315;SDS011;5203;48.976;8.306;2024-03-02T05:02:37;15.35;;;7.75;;
10315;SDS011;5203;48.976;8.306;2024-03-02T05:05:03;11.20;;;7.35;;
10315;SDS011;5203;48.976;8.306;2024-03-02T05:07:29;11.68;;;7.65;;
10315;SDS011;5203;48.976;8.306;2024-03-02T05:09:55;13.00;;;8.75;;
10315;SDS011;5203;48.976;8.306;2024-03-02T05:12:20;14.82;;;8.85;;
10315;SDS011;5203;48.976;8.306;2024-03-02T05:15:05;15.40;;;8.88;;
10315;SDS011;5203;48.976;8.306;2024-03-02T05:17:32;13.85;;;8.90;;
10315;SDS011;5203;48.976;8.306;2024-03-02T05:19:58;14.25;;;9.90;;
10315;SDS011;5203;48.976;8.306;2024-03-02T05:22:24;19.75;;;11.32;;
10315;SDS011;5203;48.976;8.306;2024-03-02T05:24:50;13.18;;;9.77;;
10315;SDS011;5203;48.976;8.306;2024-03-02T05:27:16;11.52;;;7.82;;
10315;SDS011;5203;48.976;8.306;2024-03-02T05:29:41;11.40;;;6.15;;
10315;SDS011;5203;48.976;8.306;2024-03-02T05:32:07;10.82;;;6.57;;
10315;SDS011;5203;48.976;8.306;2024-03-02T05:34:33;9.10;;;5.85;;
10315;SDS011;5203;48.976;8.306;2024-03-02T05:37:00;10.55;;;7.88;;
10315;SDS011;5203;48.976;8.306;2024-03-02T05:39:26;12.90;;;7.95;;
10315;SDS011;5203;48.976;8.306;2024-03-02T05:41:52;13.75;;;6.90;;
10315;SDS011;5203;48.976;8.306;2024-03-02T05:44:18;12.55;;;8.18;;
10315;SDS011;5203;48.976;8.306;2024-03-02T05:46:44;9.77;;;6.43;;
10315;SDS011;5203;48.976;8.306;2024-03-02T05:49:11;11.18;;;7.30;;
10315;SDS011;5203;48.976;8.306;2024-03-02T05:51:37;28.15;;;23.40;;
10315;SDS011;5203;48.976;8.306;2024-03-02T05:54:03;18.70;;;11.95;;
10315;SDS011;5203;48.976;8.306;2024-03-02T05:56:29;16.42;;;11.77;;
10315;SDS011;5203;48.976;8.306;2024-03-02T05:58:55;17.35;;;11.20;;
10315;SDS011;5203;48.976;8.306;2024-03-02T06:01:40;12.90;;;9.52;;
10315;SDS011;5203;48.976;8.306;2024-03-02T06:04:08;12.93;;;8.52;;
10315;SDS011;5203;48.976;8.306;2024-03-02T06:06:37;13.32;;;8.25;;
10315;SDS011;5203;48.976;8.306;2024-03-02T06:09:03;13.95;;;7.60;;
10315;SDS011;5203;48.976;8.306;2024-03-02T06:11:33;9.88;;;6.43;;
10315;SDS011;5203;48.976;8.306;2024-03-02T06:14:03;10.77;;;7.45;;
10315;SDS011;5203;48.976;8.306;2024-03-02T06:16:29;15.63;;;6.63;;
10315;SDS011;5203;48.976;8.306;2024-03-02T06:18:55;13.32;;;8.15;;
10315;SDS011;5203;48.976;8.306;2024-03-02T06:21:23;15.05;;;8.77;;
10315;SDS011;5203;48.976;8.306;2024-03-02T06:23:49;12.18;;;8.52;;
10315;SDS011;5203;48.976;8.306;2024-03-02T06:26:15;13.90;;;9.25;;
10315;SDS011;5203;48.976;8.306;2024-03-02T06:28:41;17.83;;;11.40;;
10315;SDS011;5203;48.976;8.306;2024-03-02T06:31:08;21.25;;;12.48;;
10315;SDS011;5203;48.976;8.306;2024-03-02T06:33:34;19.25;;;10.35;;
10315;SDS011;5203;48.976;8.306;2024-03-02T06:36:00;16.33;;;10.20;;
10315;SDS011;5203;48.976;8.306;2024-03-02T06:38:27;13.05;;;9.38;;
10315;SDS011;5203;48.976;8.306;2024-03-02T06:40:53;15.50;;;9.40;;
10315;SDS011;5203;48.976;8.306;2024-03-02T06:43:20;17.05;;;8.65;;
10315;SDS011;5203;48.976;8.306;2024-03-02T06:45:52;15.13;;;8.65;;
10315;SDS011;5203;48.976;8.306;2024-03-02T06:48:18;18.83;;;9.63;;
10315;SDS011;5203;48.976;8.306;2024-03-02T06:50:48;14.43;;;8.70;;
10315;SDS011;5203;48.976;8.306;2024-03-02T06:53:14;14.23;;;9.45;;
10315;SDS011;5203;48.976;8.306;2024-03-02T06:55:44;14.63;;;8.30;;
10315;SDS011;5203;48.976;8.306;2024-03-02T06:58:12;26.45;;;13.98;;
10315;SDS011;5203;48.976;8.306;2024-03-02T07:00:40;15.23;;;9.43;;
10315;SDS011;5203;48.976;8.306;2024-03-02T07:03:06;13.32;;;10.18;;
10315;SDS011;5203;48.976;8.306;2024-03-02T07:05:32;22.23;;;10.32;;
10315;SDS011;5203;48.976;8.306;2024-03-02T07:07:58;17.75;;;10.27;;
10315;SDS011;5203;48.976;8.306;2024-03-02T07:10:24;35.30;;;14.05;;
10315;SDS011;5203;48.976;8.306;2024-03-02T07:12:50;56.42;;;15.77;;
10315;SDS011;5203;48.976;8.306;2024-03-02T07:15:16;21.10;;;8.45;;
10315;SDS011;5203;48.976;8.306;2024-03-02T07:17:53;25.00;;;9.10;;
10315;SDS011;5203;48.976;8.306;2024-03-02T07:20:20;29.52;;;9.73;;
10315;SDS011;5203;48.976;8.306;2024-03-02T07:22:46;20.88;;;9.18;;
10315;SDS011;5203;48.976;8.306;2024-03-02T07:25:11;11.73;;;7.70;;
10315;SDS011;5203;48.976;8.306;2024-03-02T07:27:38;31.10;;;18.75;;
10315;SDS011;5203;48.976;8.306;2024-03-02T07:30:04;23.10;;;14.77;;
10315;SDS011;5203;48.976;8.306;2024-03-02T07:32:30;22.05;;;12.00;;
10315;SDS011;5203;48.976;8.306;2024-03-02T07:34:59;23.33;;;12.60;;
10315;SDS011;5203;48.976;8.306;2024-03-02T07:37:26;26.63;;;12.30;;
10315;SDS011;5203;48.976;8.306;2024-03-02T07:39:52;17.45;;;9.45;;
10315;SDS011;5203;48.976;8.306;2024-03-02T07:42:20;18.40;;;9.15;;
10315;SDS011;5203;48.976;8.306;2024-03-02T07:44:46;14.75;;;9.20;;
10315;SDS011;5203;48.976;8.306;2024-03-02T07:47:11;15.00;;;8.57;;
10315;SDS011;5203;48.976;8.306;2024-03-02T07:49:37;14.25;;;7.43;;
10315;SDS011;5203;48.976;8.306;2024-03-02T07:52:03;14.15;;;8.73;;
10315;SDS011;5203;48.976;8.306;2024-03-02T07:54:29;9.23;;;7.22;;
10315;SDS011;5203;48.976;8.306;2024-03-02T07:56:54;13.00;;;6.75;;
10315;SDS011;5203;48.976;8.306;2024-03-02T07:59:20;10.30;;;6.55;;
10315;SDS011;5203;48.976;8.306;2024-03-02T08:01:47;7.40;;;4.93;;
10315;SDS011;5203;48.976;8.306;2024-03-02T08:06:40;8.32;;;5.75;;
10315;SDS011;5203;48.976;8.306;2024-03-02T08:09:06;10.30;;;6.03;;
10315;SDS011;5203;48.976;8.306;2024-03-02T08:11:35;11.88;;;6.60;;
10315;SDS011;5203;48.976;8.306;2024-03-02T08:14:00;11.60;;;4.90;;
10315;SDS011;5203;48.976;8.306;2024-03-02T08:16:26;8.75;;;4.85;;
10315;SDS011;5203;48.976;8.306;2024-03-02T08:18:52;12.23;;;5.00;;
10315;SDS011;5203;48.976;8.306;2024-03-02T08:21:18;5.47;;;4.05;;
10315;SDS011;5203;48.976;8.306;2024-03-02T08:23:44;7.78;;;5.25;;
10315;SDS011;5203;48.976;8.306;2024-03-02T08:26:10;5.68;;;4.45;;
10315;SDS011;5203;48.976;8.306;2024-03-02T08:28:36;9.65;;;5.90;;
10315;SDS011;5203;48.976;8.306;2024-03-02T08:31:03;6.18;;;4.95;;
10315;SDS011;5203;48.976;8.306;2024-03-02T08:33:29;13.27;;;7.78;;
10315;SDS011;5203;48.976;8.306;2024-03-02T08:35:55;9.70;;;6.68;;
10315;SDS011;5203;48.976;8.306;2024-03-02T08:38:21;6.78;;;4.22;;
10315;SDS011;5203;48.976;8.306;2024-03-02T08:40:48;5.82;;;4.30;;
10315;SDS011;5203;48.976;8.306;2024-03-02T08:43:14;10.90;;;7.35;;
10315;SDS011;5203;48.976;8.306;2024-03-02T08:45:40;8.35;;;5.53;;
10315;SDS011;5203;48.976;8.306;2024-03-02T08:48:07;8.77;;;6.60;;
10315;SDS011;5203;48.976;8.306;2024-03-02T08:50:33;8.60;;;5.13;;
10315;SDS011;5203;48.976;8.306;2024-03-02T08:52:59;65.25;;;32.45;;
10315;SDS011;5203;48.976;8.306;2024-03-02T08:55:26;23.10;;;13.63;;
10315;SDS011;5203;48.976;8.306;2024-03-02T08:57:53;10.73;;;5.88;;
10315;SDS011;5203;48.976;8.306;2024-03-02T09:00:19;11.90;;;7.78;;
10315;SDS011;5203;48.976;8.306;2024-03-02T09:02:45;7.40;;;5.88;;
10315;SDS011;5203;48.976;8.306;2024-03-02T09:05:11;11.82;;;7.35;;
10315;SDS011;5203;48.976;8.306;2024-03-02T09:07:37;12.75;;;9.35;;
10315;SDS011;5203;48.976;8.306;2024-03-02T09:10:04;10.07;;;6.28;;
10315;SDS011;5203;48.976;8.306;2024-03-02T09:12:31;10.43;;;7.28;;
10315;SDS011;5203;48.976;8.306;2024-03-02T09:15:00;7.18;;;4.63;;
10315;SDS011;5203;48.976;8.306;2024-03-02T09:17:28;7.93;;;4.72;;
10315;SDS011;5203;48.976;8.306;2024-03-02T09:19:54;4.75;;;3.55;;
10315;SDS011;5203;48.976;8.306;2024-03-02T09:22:19;5.75;;;3.85;;
10315;SDS011;5203;48.976;8.306;2024-03-02T09:24:45;7.32;;;4.78;;
10315;SDS011;5203;48.976;8.306;2024-03-02T09:27:11;7.22;;;4.40;;
10315;SDS011;5203;48.976;8.306;2024-03-02T09:29:37;6.18;;;4.30;;
10315;SDS011;5203;48.976;8.306;2024-03-02T09:32:03;5.50;;;4.50;;
10315;SDS011;5203;48.976;8.306;2024-03-02T09:34:33;7.53;;;4.70;;
10315;SDS011;5203;48.976;8.306;2024-03-02T09:36:59;7.22;;;5.03;;
10315;SDS011;5203;48.976;8.306;2024-03-02T09:39:24;7.68;;;5.85;;
10315;SDS011;5203;48.976;8.306;2024-03-02T09:41:53;13.88;;;6.40;;
10315;SDS011;5203;48.976;8.306;2024-03-02T09:44:19;8.80;;;5.72;;
10315;SDS011;5203;48.976;8.306;2024-03-02T09:46:48;8.93;;;5.80;;
10315;SDS011;5203;48.976;8.306;2024-03-02T09:49:14;9.48;;;6.30;;
10315;SDS011;5203;48.976;8.306;2024-03-02T09:51:40;7.82;;;5.72;;
10315;SDS011;5203;48.976;8.306;2024-03-02T09:54:11;10.07;;;5.70;;
10315;SDS011;5203;48.976;8.306;2024-03-02T09:56:37;7.68;;;4.85;;
10315;SDS011;5203;48.976;8.306;2024-03-02T09:59:03;6.32;;;4.38;;
10315;SDS011;5203;48.976;8.306;2024-03-02T10:01:30;8.20;;;4.97;;
10315;SDS011;5203;48.976;8.306;2024-03-02T10:03:57;8.90;;;5.38;;
10315;SDS011;5203;48.976;8.306;2024-03-02T10:06:25;6.70;;;4.50;;
10315;SDS011;5203;48.976;8.306;2024-03-02T10:08:52;12.30;;;4.60;;
10315;SDS011;5203;48.976;8.306;2024-03-02T10:11:41;13.50;;;5.65;;
10315;SDS011;5203;48.976;8.306;2024-03-02T10:16:39;6.50;;;4.25;;
10315;SDS011;5203;48.976;8.306;2024-03-02T10:19:15;6.30;;;4.43;;
10315;SDS011;5203;48.976;8.306;2024-03-02T10:21:49;6.25;;;3.50;;
10315;SDS011;5203;48.976;8.306;2024-03-02T10:24:16;8.25;;;3.90;;
10315;SDS011;5203;48.976;8.306;2024-03-02T10:26:42;7.53;;;3.92;;
10315;SDS011;5203;48.976;8.306;2024-03-02T10:29:09;11.77;;;5.20;;
10315;SDS011;5203;48.976;8.306;2024-03-02T10:31:36;6.45;;;4.60;;
10315;SDS011;5203;48.976;8.306;2024-03-02T10:37:37;17.13;;;4.68;;
10315;SDS011;5203;48.976;8.306;2024-03-02T10:40:10;5.45;;;3.55;;
10315;SDS011;5203;48.976;8.306;2024-03-02T10:45:30;22.75;;;4.80;;
10315;SDS011;5203;48.976;8.306;2024-03-02T10:47:59;4.07;;;2.88;;
10315;SDS011;5203;48.976;8.306;2024-03-02T10:50:30;6.05;;;4.03;;
10315;SDS011;5203;48.976;8.306;2024-03-02T10:53:07;12.35;;;4.10;;
10315;SDS011;5203;48.976;8.306;2024-03-02T10:55:43;5.07;;;3.33;;
10315;SDS011;5203;48.976;8.306;2024-03-02T10:58:13;5.93;;;3.40;;
10315;SDS011;5203;48.976;8.306;2024-03-02T11:00:42;4.65;;;3.13;;
10315;SDS011;5203;48.976;8.306;2024-03-02T11:03:44;6.10;;;3.33;;
10315;SDS011;5203;48.976;8.306;2024-03-02T11:06:25;10.40;;;4.50;;
10315;SDS011;5203;48.976;8.306;2024-03-02T11:08:58;12.85;;;3.03;;
10315;SDS011;5203;48.976;8.306;2024-03-02T11:11:32;7.45;;;2.38;;
10315;SDS011;5203;48.976;8.306;2024-03-02T11:14:01;6.70;;;3.00;;
10315;SDS011;5203;48.976;8.306;2024-03-02T11:16:36;6.97;;;3.38;;
10315;SDS011;5203;48.976;8.306;2024-03-02T11:19:07;10.40;;;3.38;;
10315;SDS011;5203;48.976;8.306;2024-03-02T11:21:35;5.63;;;2.35;;
10315;SDS011;5203;48.976;8.306;2024-03-02T11:26:51;5.15;;;1.52;;
10315;SDS011;5203;48.976;8.306;2024-03-02T11:32:15;2.83;;;1.67;;
10315;SDS011;5203;48.976;8.306;2024-03-02T11:53:08;6.05;;;1.95;;
10315;SDS011;5203;48.976;8.306;2024-03-02T11:56:06;3.63;;;1.80;;
10315;SDS011;5203;48.976;8.306;2024-03-02T11:58:55;2.25;;;1.50;;
10315;SDS011;5203;48.976;8.306;2024-03-02T12:04:45;3.20;;;1.48;;
10315;SDS011;5203;48.976;8.306;2024-03-02T12:07:22;1.77;;;1.13;;
10315;SDS011;5203;48.976;8.306;2024-03-02T12:10:36;4.05;;;1.20;;
10315;SDS011;5203;48.976;8.306;2024-03-02T12:16:45;2.20;;;1.35;;
10315;SDS011;5203;48.976;8.306;2024-03-02T12:19:13;2.47;;;1.55;;
10315;SDS011;5203;48.976;8.306;2024-03-02T12:25:02;4.15;;;1.58;;
10315;SDS011;5203;48.976;8.306;2024-03-02T12:28:03;3.60;;;1.10;;
10315;SDS011;5203;48.976;8.306;2024-03-02T12:41:10;2.13;;;1.52;;
10315;SDS011;5203;48.976;8.306;2024-03-02T12:43:40;3.00;;;1.52;;
10315;SDS011;5203;48.976;8.306;2024-03-02T12:46:06;4.13;;;1.42;;
10315;SDS011;5203;48.976;8.306;2024-03-02T12:48:32;2.38;;;1.58;;
10315;SDS011;5203;48.976;8.306;2024-03-02T12:50:58;4.40;;;2.10;;
10315;SDS011;5203;48.976;8.306;2024-03-02T12:53:24;3.60;;;1.63;;
10315;SDS011;5203;48.976;8.306;2024-03-02T12:55:50;3.65;;;2.10;;
10315;SDS011;5203;48.976;8.306;2024-03-02T12:58:16;3.72;;;1.15;;
10315;SDS011;5203;48.976;8.306;2024-03-02T13:00:44;3.20;;;1.75;;
10315;SDS011;5203;48.976;8.306;2024-03-02T13:03:09;4.72;;;1.70;;
10315;SDS011;5203;48.976;8.306;2024-03-02T13:05:37;2.63;;;1.33;;
10315;SDS011;5203;48.976;8.306;2024-03-02T13:08:06;2.70;;;1.20;;
10315;SDS011;5203;48.976;8.306;2024-03-02T13:10:34;4.07;;;1.90;;
10315;SDS011;5203;48.976;8.306;2024-03-02T13:13:00;2.25;;;1.33;;
10315;SDS011;5203;48.976;8.306;2024-03-02T13:15:26;2.78;;;1.98;;
10315;SDS011;5203;48.976;8.306;2024-03-02T13:17:52;3.92;;;1.30;;
10315;SDS011;5203;48.976;8.306;2024-03-02T13:20:18;1.20;;;1.00;;
10315;SDS011;5203;48.976;8.306;2024-03-02T13:22:45;3.28;;;1.00;;
10315;SDS011;5203;48.976;8.306;2024-03-02T13:25:17;2.92;;;1.25;;
10315;SDS011;5203;48.976;8.306;2024-03-02T13:27:42;3.28;;;1.48;;
10315;SDS011;5203;48.976;8.306;2024-03-02T13:30:11;3.28;;;1.08;;
10315;SDS011;5203;48.976;8.306;2024-03-02T13:32:37;2.08;;;1.35;;
10315;SDS011;5203;48.976;8.306;2024-03-02T13:35:03;2.20;;;1.48;;
10315;SDS011;5203;48.976;8.306;2024-03-02T13:37:29;2.70;;;1.30;;
10315;SDS011;5203;48.976;8.306;2024-03-02T13:39:55;3.63;;;1.33;;
10315;SDS011;5203;48.976;8.306;2024-03-02T13:42:20;7.03;;;1.38;;
10315;SDS011;5203;48.976;8.306;2024-03-02T13:44:46;5.35;;;1.00;;
10315;SDS011;5203;48.976;8.306;2024-03-02T13:47:19;2.60;;;0.85;;
10315;SDS011;5203;48.976;8.306;2024-03-02T13:49:46;3.47;;;1.10;;
10315;SDS011;5203;48.976;8.306;2024-03-02T13:52:13;5.60;;;2.00;;
10315;SDS011;5203;48.976;8.306;2024-03-02T13:54:40;5.03;;;1.85;;
10315;SDS011;5203;48.976;8.306;2024-03-02T13:59:33;8.80;;;3.95;;
10315;SDS011;5203;48.976;8.306;2024-03-02T14:02:02;4.45;;;2.83;;
10315;SDS011;5203;48.976;8.306;2024-03-02T14:04:31;2.45;;;1.35;;
10315;SDS011;5203;48.976;8.306;2024-03-02T14:06:58;5.82;;;1.60;;
10315;SDS011;5203;48.976;8.306;2024-03-02T14:09:24;2.97;;;1.10;;
10315;SDS011;5203;48.976;8.306;2024-03-02T14:11:51;7.80;;;4.05;;
10315;SDS011;5203;48.976;8.306;2024-03-02T14:14:17;5.18;;;1.88;;
10315;SDS011;5203;48.976;8.306;2024-03-02T14:16:43;4.80;;;2.10;;
10315;SDS011;5203;48.976;8.306;2024-03-02T14:19:10;6.82;;;1.75;;
10315;SDS011;5203;48.976;8.306;2024-03-02T14:21:36;10.23;;;1.35;;
10315;SDS011;5203;48.976;8.306;2024-03-02T14:24:02;9.05;;;1.42;;
10315;SDS011;5203;48.976;8.306;2024-03-02T14:26:28;4.85;;;1.55;;
10315;SDS011;5203;48.976;8.306;2024-03-02T14:28:54;5.35;;;2.28;;
10315;SDS011;5203;48.976;8.306;2024-03-02T14:31:20;4.80;;;1.83;;
10315;SDS011;5203;48.976;8.306;2024-03-02T14:33:48;6.15;;;1.60;;
10315;SDS011;5203;48.976;8.306;2024-03-02T14:36:14;2.97;;;1.25;;
10315;SDS011;5203;48.976;8.306;2024-03-02T14:38:40;8.48;;;2.35;;
10315;SDS011;5203;48.976;8.306;2024-03-02T14:41:05;2.47;;;1.83;;
10315;SDS011;5203;48.976;8.306;2024-03-02T14:43:31;3.47;;;1.73;;
10315;SDS011;5203;48.976;8.306;2024-03-02T14:45:57;3.92;;;1.52;;
10315;SDS011;5203;48.976;8.306;2024-03-02T14:48:24;3.72;;;2.35;;
10315;SDS011;5203;48.976;8.306;2024-03-02T14:50:49;19.67;;;2.70;;
10315;SDS011;5203;48.976;8.306;2024-03-02T14:53:16;8.60;;;1.77;;
10315;SDS011;5203;48.976;8.306;2024-03-02T14:55:41;7.75;;;2.55;;
10315;SDS011;5203;48.976;8.306;2024-03-02T14:58:07;6.93;;;2.60;;
10315;SDS011;5203;48.976;8.306;2024-03-02T15:00:33;7.82;;;3.35;;
10315;SDS011;5203;48.976;8.306;2024-03-02T15:02:59;7.90;;;2.38;;
10315;SDS011;5203;48.976;8.306;2024-03-02T15:05:24;8.20;;;3.70;;
10315;SDS011;5203;48.976;8.306;2024-03-02T15:07:51;5.55;;;2.45;;
10315;SDS011;5203;48.976;8.306;2024-03-02T15:10:17;3.38;;;1.73;;
10315;SDS011;5203;48.976;8.306;2024-03-02T15:12:45;4.93;;;1.58;;
10315;SDS011;5203;48.976;8.306;2024-03-02T15:15:11;3.80;;;1.52;;
10315;SDS011;5203;48.976;8.306;2024-03-02T15:17:37;4.40;;;2.45;;
10315;SDS011;5203;48.976;8.306;2024-03-02T15:20:03;3.80;;;1.95;;
10315;SDS011;5203;48.976;8.306;2024-03-02T15:22:32;3.88;;;1.85;;
10315;SDS011;5203;48.976;8.306;2024-03-02T15:25:05;7.55;;;4.55;;
10315;SDS011;5203;48.976;8.306;2024-03-02T15:27:34;5.75;;;3.80;;
10315;SDS011;5203;48.976;8.306;2024-03-02T15:30:00;9.30;;;2.85;;
10315;SDS011;5203;48.976;8.306;2024-03-02T15:32:26;4.50;;;2.72;;
10315;SDS011;5203;48.976;8.306;2024-03-02T15:34:52;10.23;;;6.80;;
10315;SDS011;5203;48.976;8.306;2024-03-02T15:37:24;26.17;;;16.65;;
10315;SDS011;5203;48.976;8.306;2024-03-02T15:39:49;11.05;;;7.15;;
10315;SDS011;5203;48.976;8.306;2024-03-02T15:42:15;9.65;;;5.53;;
10315;SDS011;5203;48.976;8.306;2024-03-02T15:44:41;16.48;;;5.53;;
10315;SDS011;5203;48.976;8.306;2024-03-02T15:47:07;17.30;;;8.55;;
10315;SDS011;5203;48.976;8.306;2024-03-02T15:49:32;9.52;;;4.18;;
10315;SDS011;5203;48.976;8.306;2024-03-02T15:51:58;13.45;;;4.78;;
10315;SDS011;5203;48.976;8.306;2024-03-02T15:54:26;9.20;;;2.92;;
10315;SDS011;5203;48.976;8.306;2024-03-02T15:56:52;4.03;;;2.13;;
10315;SDS011;5203;48.976;8.306;2024-03-02T15:59:18;4.90;;;2.03;;